Tiempo atmosférico en la estación meteorológica de Areso, Navarra (520 m.)



Fecha
DESCASC
Temp. máxima en grados centígrados (hora)
DESCASC
Temp. mínima en grados centígrados (hora)
DESCASC
Temp. media en grados centígrados
DESCASC
Racha de viento máxima en m/sg (hora)
DESCASC
Velocidad máxima media en intervalos de 10 minutos(hora)
DESCASC
Precipitaciones diarias en mm
DESCASC
Precipitaciones de 00:00 a 06:00 en mm
DESCASC
Precipitaciones de 06:00 a 12:00 en mm
DESCASC
Precipitaciones de 12:00 a 18:00 en mm
DESCASC
Precipitaciones de 18:00 a 24:00 en mm
DESCASC
17-10-2019 20 (16:50) 12 (08:00) 16 11.11 (09:50) 6.39 (11:10) 2.8 0 2.8 0 0
16-10-2019 19.8 (17:20) 10.9 (00:00) 15.3 11.94 (14:40) 6.11 (14:50) 0 0 0 0 0
15-10-2019 16.7 (15:30) 7.2 (08:20) 12 6.67 (12:00) 3.89 (11:50) 1.2 1.2 0 0 0
14-10-2019 22.2 (14:10) 9.7 (23:50) 16 20.28 (07:30) 8.06 (13:50) 11.4 0 0 7.2 4.2
13-10-2019 25.2 (15:30) 18.2 (00:00) 21.7 14.72 (10:20) 8.33 (10:30) 0 0 0 0 0
12-10-2019 24.9 (17:40) 19.3 (00:00) 22.1 13.06 (00:50) 7.22 (07:00) 0.2 0 0 0 0.2
11-10-2019 25.1 (17:00) 10.6 (00:00) 17.9 17.22 (06:20) 9.72 (06:20) 0 0 0 0 0
10-10-2019 20.1 (15:50) 7.5 (00:00) 13.8 3.89 (12:40) 1.94 (16:20) 0 0 0 0 0
09-10-2019 14.9 (17:10) 9.8 (00:00) 12.3 6.11 (14:00) 1.94 (15:10) 2.4 1 1.4 0 0
08-10-2019 24.3 (13:10) 7.9 (00:00) 16.1 5 (22:20) 1.67 (22:20) 1.8 0 0 0 1.8
07-10-2019 20.7 (17:40) 9.3 (00:00) 15 5.56 (14:30) 2.78 (14:30) 0.2 0 0.2 0 0
06-10-2019 15.5 (15:50) 10.6 (00:00) 13.1 5 (21:00) 1.39 (11:10) 3.2 0 0 2.6 0.6
05-10-2019 16.9 (16:00) 11.9 (08:20) 14.4 3.61 (14:30) 1.11 (11:30) 0.4 0.4 0 0 0
04-10-2019 16.2 (12:30) 11 (00:00) 13.6 3.61 (17:20) 1.39 (13:00) 3.6 0 1 1.6 1
03-10-2019 19.9 (15:20) 10.7 (00:00) 15.3 4.72 (15:30) 1.67 (14:00) 1 0.8 0 0.2 0
02-10-2019 15.2 (14:30) 12.2 (00:00) 13.7 10 (11:20) 2.78 (14:30) 19.8 5.2 8 4.6 2
01-10-2019 20 (13:10) 13.6 (00:00) 16.8 6.39 (18:20) 1.94 (16:40) 0.6 0 0 0 0.6
30-09-2019 26.2 (16:50) 13.8 (00:00) 20 4.17 (15:10) 1.67 (13:50) 0 0 0 0 0
29-09-2019 27.5 (16:00) 13.1 (00:00) 20.3 9.44 (13:10) 4.72 (08:10) 0 0 0 0 0
28-09-2019 23.5 (16:00) 13.6 (00:00) 18.6 4.17 (15:10) 1.67 (15:00) 0.2 0.2 0 0 0
27-09-2019 22.5 (15:00) 9.8 (00:00) 16.2 4.44 (14:30) 1.94 (15:40) 0.4 0 0 0 0.4
26-09-2019 23.3 (15:30) 10.1 (00:00) 16.7 4.17 (18:30) 1.94 (12:40) 0 0 0 0 0
25-09-2019 18.3 (16:10) 11.9 (00:00) 15.1 5.28 (13:00) 2.78 (12:50) 1 1 0 0 0
24-09-2019 24.7 (14:10) 13.7 (00:00) 19.2 11.11 (05:10) 5.83 (05:50) 0.6 0 0 0 0.6
23-09-2019 21.4 (16:00) 9.7 (00:00) 15.5 5.56 (13:50) 3.33 (13:10) 0.2 0 0 0.2 0
22-09-2019 20.9 (16:50) 12.1 (00:00) 16.5 12.78 (00:30) 8.33 (00:30) 10.8 2.2 8 0 0.6
21-09-2019 24 (15:00) 16.7 (00:00) 20.4 16.11 (01:50) 8.61 (01:40) 0.6 0.4 0 0.2 0
20-09-2019 26.7 (16:10) 15 (00:00) 20.9 14.44 (14:50) 8.61 (23:00) 0 0 0 0 0
19-09-2019 24.1 (15:10) 13.3 (00:00) 18.7 4.17 (15:40) 1.94 (15:30) 0 0 0 0 0

Gráficas

Temp. máximas Temp. mínimas Temp. medias Precipitaciones Rachas de viento máximas Velocidades máximas media en intervalos de 10 minutos

Datos horarios

Fecha y hora oficial Temperatura (ºC) Velocidad del viento (km/h) Dirección del viento Racha (km/h) Dirección de racha Precipitación (mm) Presión (hPa) Tendencia (hPa) Humedad (%)
2019-10-18 23:00:00 13 0 Calma 8 Noroeste 0 -- -- 99
2019-10-18 22:00:00 12.7 0 Calma 4 Norte 0 -- -- 97
2019-10-18 21:00:00 13 0 Calma 4 Nordeste 0 -- -- 95
2019-10-18 20:00:00 13.6 0 Calma 5 Nordeste 0 -- -- 93
2019-10-18 19:00:00 14.5 0 Calma 6 Nordeste 0 -- -- 91
2019-10-18 18:00:00 15.3 0 Calma 6 Nordeste 0 -- -- 88
2019-10-18 17:00:00 15.7 0 Calma 9 Nordeste 0 -- -- 85
2019-10-18 16:00:00 16.1 2 Nordeste 8 Este 0 -- -- 82
2019-10-18 15:00:00 16.1 0 Calma 6 Este 0 -- -- 82
2019-10-18 14:00:00 14.4 2 Nordeste 6 Nordeste 0 -- -- 89
2019-10-18 13:00:00 14 0 Calma 6 Este 0 -- -- 92
2019-10-18 12:00:00 13.4 0 Calma 7 Sudeste 0 -- -- 97
2019-10-18 11:00:00 12.8 0 Calma 3 Nordeste 0.2 -- -- 98
2019-10-18 10:00:00 12.7 0 Calma 12 Norte 0.4 -- -- 98
2019-10-18 09:00:00 12.8 7 Noroeste 15 Noroeste 0.2 -- -- 96
2019-10-18 08:00:00 13.4 0 Calma 5 Nordeste 0 -- -- 97
2019-10-18 07:00:00 13.3 0 Calma 6 Noroeste 0 -- -- 95
2019-10-18 06:00:00 14.1 4 Noroeste 16 Sudoeste 0 -- -- 87
2019-10-18 05:00:00 14.4 9 Sudoeste 27 Oeste 0.2 -- -- 86
2019-10-18 04:00:00 15 17 Sudoeste 35 Sudoeste 0.4 -- -- 82
2019-10-18 03:00:00 15.8 12 Oeste 24 Sudoeste 0.2 -- -- 74
2019-10-18 02:00:00 16.3 11 Oeste 26 Sudoeste 0 -- -- 71
2019-10-18 01:00:00 16.4 14 Sudoeste 29 Sudoeste 0 -- -- 70
2019-10-18 00:00:00 16.3 10 Sudoeste 27 Sudoeste 0 -- -- 70
2019-10-17 23:00:00 12.6 2 Este 6 Sudeste 0 -- -- 97
2019-10-17 22:00:00 13.3 0 Calma 2 Norte 0 -- -- 95
2019-10-17 21:00:00 14.5 0 Calma 6 Norte 0 -- -- 93
2019-10-17 20:00:00 15.4 0 Calma 19 Norte 0 -- -- 89
2019-10-17 19:00:00 17.2 4 Norte 15 Noroeste 0 -- -- 75
2019-10-17 18:00:00 19.6 6 Sudoeste 21 Sudoeste 0 -- -- 60
2019-10-17 17:00:00 19.5 15 Sudoeste 33 Sudoeste 0 -- -- 58
2019-10-17 16:00:00 19.4 14 Sudoeste 28 Sur 0 -- -- 60
2019-10-17 15:00:00 16.6 14 Sur 31 Sur 0 -- -- 63
2019-10-17 14:00:00 17.9 10 Sudoeste 30 Sudoeste 0 -- -- 65
2019-10-17 13:00:00 16.4 9 Sur 26 Sur 0 -- -- 63
2019-10-17 12:00:00 14.9 14 Sudoeste 35 Sur 0 -- -- 66
2019-10-17 11:00:00 14.3 17 Sudoeste 36 Sur 0 -- -- 69
2019-10-17 10:00:00 13.6 20 Sudoeste 40 Sur 0 -- -- 70
2019-10-17 09:00:00 13 15 Sudoeste 36 Sur 0 -- -- 71
2019-10-17 08:00:00 12 13 Sur 25 Sur 2 -- -- 84
2019-10-17 07:00:00 13.6 0 Calma 21 Oeste 0.8 -- -- 84
2019-10-17 06:00:00 15.8 11 Sudoeste 24 Sudoeste 0 -- -- 64
2019-10-17 05:00:00 14.9 7 Sudoeste 17 Oeste 0 -- -- 58
2019-10-17 04:00:00 15.4 6 Sudoeste 31 Sudoeste 0 -- -- 57
2019-10-17 03:00:00 16.1 9 Sudoeste 38 Sudoeste 0 -- -- 52
2019-10-17 02:00:00 16.2 13 Sur 36 Sudoeste 0 -- -- 53
2019-10-17 01:00:00 15.9 8 Sudoeste 23 Sudoeste 0 -- -- 56
2019-10-17 00:00:00 16.1 9 Sudoeste 26 Sudoeste 0 -- -- 56
2019-10-16 23:00:00 16 2 Oeste 18 Oeste 0 -- -- 56
2019-10-16 22:00:00 16.1 2 Sur 22 Sur 0 -- -- 59
2019-10-16 21:00:00 16.1 10 Sudoeste 22 Sur 0 -- -- 58
2019-10-16 20:00:00 16 4 Oeste 27 Sur 0 -- -- 57
2019-10-16 19:00:00 17.2 13 Sudoeste 23 Sur 0 -- -- 52
2019-10-16 18:00:00 18.3 7 Sur 28 Sur 0 -- -- 53
2019-10-16 17:00:00 19.5 10 Sudoeste 30 Sur 0 -- -- 48
2019-10-16 16:00:00 18.2 13 Sudoeste 35 Sudoeste 0 -- -- 51
2019-10-16 15:00:00 18.2 18 Sudoeste 43 Sudoeste 0 -- -- 52
2019-10-16 14:00:00 16.3 9 Sur 33 Sudoeste 0 -- -- 61
2019-10-16 13:00:00 16.7 11 Sudoeste 38 Sudoeste 0 -- -- 55
2019-10-16 12:00:00 15.6 19 Sudoeste 40 Sudoeste 0 -- -- 57
2019-10-16 11:00:00 14.5 4 Sur 42 Sudoeste 0 -- -- 61
2019-10-16 10:00:00 14.1 19 Sudoeste 39 Sur 0 -- -- 59
2019-10-16 09:00:00 12.4 4 Oeste 15 Sur 0 -- -- 66
2019-10-16 08:00:00 12 4 Oeste 18 Sudoeste 0 -- -- 68
2019-10-16 07:00:00 12 2 Oeste 14 Oeste 0 -- -- 72
2019-10-16 06:00:00 12.6 4 Sudoeste 17 Sudoeste 0 -- -- 68
2019-10-16 05:00:00 13 8 Oeste 17 Sudoeste 0 -- -- 65
2019-10-16 04:00:00 12.6 2 Sur 16 Sudoeste 0 -- -- 66
2019-10-16 03:00:00 12.7 2 Sudoeste 20 Sudoeste 0 -- -- 65
2019-10-16 02:00:00 12.5 10 Sudoeste 18 Oeste 0 -- -- 66
2019-10-16 01:00:00 12.1 7 Sudoeste 16 Oeste 0 -- -- 64
2019-10-16 00:00:00 10.9 2 Oeste 6 Oeste 0 -- -- 70
2019-10-15 23:00:00 11 3 Sudoeste 13 Sudoeste 0 -- -- 67
2019-10-15 22:00:00 10.7 4 Sudoeste 12 Sur 0 -- -- 72
2019-10-15 21:00:00 10.8 3 Sudoeste 11 Oeste 0 -- -- 74
2019-10-15 20:00:00 11.6 2 Sudoeste 10 Sudoeste 0 -- -- 73
2019-10-15 19:00:00 13.4 0 Calma 11 Noroeste 0 -- -- 70
2019-10-15 18:00:00 15.5 2 Sudoeste 15 Oeste 0 -- -- 55
2019-10-15 17:00:00 16 8 Oeste 22 Noroeste 0 -- -- 49
2019-10-15 16:00:00 16.3 10 Oeste 22 Oeste 0 -- -- 48
2019-10-15 15:00:00 16.1 10 Sudoeste 22 Sudoeste 0 -- -- 53
2019-10-15 14:00:00 15.4 4 Sudoeste 20 Sudoeste 0 -- -- 54
2019-10-15 13:00:00 14.4 13 Sudoeste 22 Sur 0 -- -- 53
2019-10-15 12:00:00 13.9 11 Sudoeste 24 Sudoeste 0 -- -- 58
2019-10-15 11:00:00 12.1 5 Noroeste 21 Oeste 0 -- -- 63
2019-10-15 10:00:00 9.7 0 Calma 12 Sudoeste 0 -- -- 81
2019-10-15 09:00:00 7.6 2 Noroeste 6 Oeste 0 -- -- 95
2019-10-15 08:00:00 7.4 2 Noroeste 15 Sudeste 0 -- -- 93
2019-10-15 07:00:00 8.2 0 Calma 8 Sudeste 0 -- -- 90
2019-10-15 06:00:00 8.3 0 Calma 6 Oeste 0 -- -- 88
2019-10-15 05:00:00 8.2 0 Calma 9 Sudoeste 0 -- -- 95
2019-10-15 04:00:00 8.4 0 Calma 9 Nordeste 0 -- -- 96
2019-10-15 03:00:00 8.4 0 Calma 5 Noroeste 0 -- -- 98
2019-10-15 02:00:00 8.9 0 Calma 21 Sudoeste 0 -- -- 95
2019-10-15 01:00:00 9.4 6 Sudoeste 10 Sudoeste 1.2 -- -- 95
2019-10-15 00:00:00 9.7 4 Sudoeste 29 Oeste 2.8 -- -- 92
2019-10-14 23:00:00 10.7 0 Calma 10 Oeste 0.6 -- -- 95
2019-10-14 22:00:00 11.2 3 Sudoeste 28 Oeste 0.4 -- -- 91
2019-10-14 21:00:00 12.8 10 Oeste 39 Noroeste 0.4 -- -- 77
2019-10-14 20:00:00 15.2 7 Oeste 35 Sudoeste 0 -- -- 69
2019-10-14 19:00:00 16 0 Calma 12 Norte 0 -- -- 81
2019-10-14 18:00:00 19.9 4 Noroeste 24 Noroeste 0 -- -- 61
2019-10-14 17:00:00 20 8 Oeste 30 Noroeste 0 -- -- 53
2019-10-14 16:00:00 17.6 3 Este 8 Este 0 -- -- 95
2019-10-14 15:00:00 15.6 7 Noroeste 50 Noroeste 7.2 -- -- 88
2019-10-14 14:00:00 21.8 23 Sudoeste 54 Sudoeste 0 -- -- 57
2019-10-14 13:00:00 21.2 20 Sur 53 Sur 0 -- -- 60
2019-10-14 12:00:00 20.7 17 Sur 38 Sudoeste 0 -- -- 62
2019-10-14 11:00:00 19.6 22 Sur 48 Sudoeste 0 -- -- 67
2019-10-14 10:00:00 19.6 21 Sur 57 Sur 0 -- -- 65
2019-10-14 09:00:00 19 27 Sur 58 Sudoeste 0 -- -- 67
2019-10-14 08:00:00 18.9 23 Sudoeste 73 Sudoeste 0 -- -- 69
2019-10-14 07:00:00 18.8 25 Sur 50 Sur 0 -- -- 70
2019-10-14 06:00:00 18.9 26 Sur 52 Sudoeste 0 -- -- 69
2019-10-14 05:00:00 19.2 19 Sur 42 Sudeste 0 -- -- 66
2019-10-14 04:00:00 19.2 18 Sur 46 Sur 0 -- -- 66
2019-10-14 03:00:00 19.5 20 Sur 42 Sudoeste 0 -- -- 65
2019-10-14 02:00:00 19.6 12 Sur 41 Sudeste 0 -- -- 65
2019-10-14 01:00:00 20.6 21 Sudoeste 45 Sur 0 -- -- 66
2019-10-14 00:00:00 21.4 13 Sur 47 Sur 0 -- -- 63
2019-10-13 23:00:00 21.7 15 Sur 28 Sur 0 -- -- 60
2019-10-13 22:00:00 21.7 11 Sudoeste 23 Sudoeste 0 -- -- 60
2019-10-13 21:00:00 21.4 8 Sudoeste 19 Sur 0 -- -- 55
2019-10-13 20:00:00 22.3 11 Sudoeste 31 Sudeste 0 -- -- 55
2019-10-13 19:00:00 23.2 15 Sur 26 Sur 0 -- -- 50
2019-10-13 18:00:00 25.1 17 Sur 31 Sudoeste 0 -- -- 45
2019-10-13 17:00:00 24.8 14 Sudoeste 32 Sudoeste 0 -- -- 49
2019-10-13 16:00:00 24.1 14 Sudoeste 38 Sur 0 -- -- 54
2019-10-13 15:00:00 24.5 18 Sur 39 Sur 0 -- -- 56
2019-10-13 14:00:00 23 19 Sur 36 Sudoeste 0 -- -- 58
2019-10-13 13:00:00 20.6 18 Sur 48 Sur 0 -- -- 68
2019-10-13 12:00:00 20.8 24 Sur 48 Sudoeste 0 -- -- 68
2019-10-13 11:00:00 20.1 20 Sur 53 Sur 0 -- -- 70
2019-10-13 10:00:00 19.2 23 Sur 48 Sur 0 -- -- 72
2019-10-13 09:00:00 18.4 19 Sudoeste 48 Sudoeste 0 -- -- 73
2019-10-13 08:00:00 18.5 23 Sur 51 Sudoeste 0 -- -- 73
2019-10-13 07:00:00 18.7 23 Sur 49 Sur 0 -- -- 71
2019-10-13 06:00:00 18.8 24 Sur 51 Sur 0 -- -- 70
2019-10-13 05:00:00 19 23 Sur 47 Sur 0 -- -- 68
2019-10-13 04:00:00 18.9 15 Sur 47 Sur 0 -- -- 70
2019-10-13 03:00:00 19.3 14 Sur 45 Sudoeste 0 -- -- 71
2019-10-13 02:00:00 19.8 14 Sur 43 Sur 0 -- -- 69
2019-10-13 01:00:00 20.2 19 Sur 43 Sur 0 -- -- 68
2019-10-13 00:00:00 20.6 19 Sur 45 Sudoeste 0 -- -- 67
2019-10-12 23:00:00 20.5 14 Sur 30 Sudoeste 0 -- -- 66
2019-10-12 22:00:00 20.3 17 Sudoeste 33 Sur 0 -- -- 69
2019-10-12 21:00:00 20.7 17 Sur 40 Sur 0 -- -- 67
2019-10-12 20:00:00 19.3 9 Sudoeste 40 Sur 0.2 -- -- 76
2019-10-12 19:00:00 22.5 20 Sur 43 Sur 0 -- -- 61
2019-10-12 18:00:00 24.4 15 Sudoeste 35 Sudoeste 0 -- -- 51
2019-10-12 17:00:00 23.9 8 Sudeste 23 Sudoeste 0 -- -- 56
2019-10-12 16:00:00 22.8 12 Sur 33 Sudoeste 0 -- -- 60
2019-10-12 15:00:00 22.6 21 Sudoeste 43 Sur 0 -- -- 61
2019-10-12 14:00:00 22.3 17 Sur 46 Sur 0 -- -- 63
2019-10-12 13:00:00 20.8 18 Sur 43 Sur 0 -- -- 71
2019-10-12 12:00:00 20.7 18 Sudoeste 45 Sudoeste 0 -- -- 71
2019-10-12 11:00:00 20.2 16 Sur 41 Sur 0 -- -- 72
2019-10-12 10:00:00 19.8 19 Sudoeste 40 Sudoeste 0 -- -- 73
2019-10-12 09:00:00 19.4 24 Sudoeste 43 Sur 0 -- -- 74
2019-10-12 08:00:00 19.4 24 Sur 45 Sur 0 -- -- 74
2019-10-12 07:00:00 19.5 26 Sur 46 Sur 0 -- -- 75
2019-10-12 06:00:00 20.2 20 Sudoeste 40 Sur 0 -- -- 71
2019-10-12 05:00:00 20.1 14 Sudoeste 37 Sudoeste 0 -- -- 73
2019-10-12 04:00:00 20.1 20 Sur 39 Sudoeste 0 -- -- 74
2019-10-12 03:00:00 20.6 17 Sudoeste 45 Sur 0 -- -- 72
2019-10-12 02:00:00 21.3 24 Sur 44 Sur 0 -- -- 69
2019-10-12 01:00:00 21.4 20 Sur 47 Sur 0 -- -- 68
2019-10-12 00:00:00 21.7 15 Sur 43 Sur 0 -- -- 65
2019-10-11 23:00:00 21.8 17 Sur 37 Sur 0 -- -- 62
2019-10-11 22:00:00 21.8 14 Sur 32 Sudoeste 0 -- -- 63
2019-10-11 21:00:00 21.7 14 Sudoeste 27 Sudoeste 0 -- -- 62
2019-10-11 20:00:00 20.6 6 Sudoeste 14 Oeste 0 -- -- 66
2019-10-11 19:00:00 21.5 3 Sudoeste 18 Sudoeste 0 -- -- 68
2019-10-11 18:00:00 24.5 7 Sudoeste 24 Sur 0 -- -- 54
2019-10-11 17:00:00 25.1 10 Sudoeste 21 Sudoeste 0 -- -- 54
2019-10-11 16:00:00 24.5 10 Sur 29 Sudoeste 0 -- -- 53
2019-10-11 15:00:00 23.4 12 Sur 33 Sudoeste 0 -- -- 56
2019-10-11 14:00:00 21.4 22 Sudoeste 43 Sur 0 -- -- 62
2019-10-11 13:00:00 20.1 24 Sudoeste 44 Sur 0 -- -- 65
2019-10-11 12:00:00 19.3 17 Sur 41 Sur 0 -- -- 66
2019-10-11 11:00:00 18.2 15 Sur 52 Sur 0 -- -- 69
2019-10-11 10:00:00 16.9 21 Sur 45 Sur 0 -- -- 70
2019-10-11 09:00:00 16.2 22 Sur 46 Sur 0 -- -- 67
2019-10-11 08:00:00 16.2 28 Sur 50 Sur 0 -- -- 64
2019-10-11 07:00:00 16.1 27 Sur 62 Sur 0 -- -- 61
2019-10-11 06:00:00 16.2 30 Sudoeste 47 Sudoeste 0 -- -- 59
2019-10-11 05:00:00 16.5 26 Sudoeste 45 Sudoeste 0 -- -- 55
2019-10-11 04:00:00 16.7 24 Sudoeste 46 Sudoeste 0 -- -- 54
2019-10-11 03:00:00 16.5 21 Sudoeste 42 Sudoeste 0 -- -- 55
2019-10-11 02:00:00 16.4 17 Sudoeste 36 Sudoeste 0 -- -- 58
2019-10-11 01:00:00 16 13 Oeste 30 Oeste 0 -- -- 62
2019-10-11 00:00:00 10.6 4 Oeste 13 Noroeste 0 -- -- 99
2019-10-10 23:00:00 10.6 0 Calma 2 Norte 0 -- -- 99
2019-10-10 22:00:00 11.3 0 Calma 3 Norte 0 -- -- 98
2019-10-10 21:00:00 12 0 Calma 2 Noroeste 0 -- -- 95
2019-10-10 20:00:00 13.4 0 Calma 3 Noroeste 0 -- -- 91
2019-10-10 19:00:00 15.9 0 Calma 7 Norte 0 -- -- 82
2019-10-10 18:00:00 18.7 4 Norte 12 Noroeste 0 -- -- 69
2019-10-10 17:00:00 19.2 5 Noroeste 12 Oeste 0 -- -- 68
2019-10-10 16:00:00 20 3 Nordeste 11 Este 0 -- -- 64
2019-10-10 15:00:00 19.7 2 Sudoeste 12 Nordeste 0 -- -- 55
2019-10-10 14:00:00 18.4 3 Sur 9 Noroeste 0 -- -- 62
2019-10-10 13:00:00 17.2 2 Este 14 Este 0 -- -- 67
2019-10-10 12:00:00 15.7 3 Sudeste 6 Nordeste 0 -- -- 75
2019-10-10 11:00:00 12.1 2 Sudeste 4 Sudeste 0 -- -- 100
2019-10-10 10:00:00 9.4 0 Calma 2 Nordeste 0 -- -- 100
2019-10-10 09:00:00 7.8 0 Calma 2 Nordeste 0 -- -- 100
2019-10-10 08:00:00 7.7 0 Calma 2 Nordeste 0 -- -- 100
2019-10-10 07:00:00 8.2 0 Calma 2 Nordeste 0 -- -- 100
2019-10-10 06:00:00 9 0 Calma 3 Nordeste 0 -- -- 100
2019-10-10 05:00:00 9.6 0 Calma 2 Nordeste 0 -- -- 100
2019-10-10 04:00:00 9.4 0 Calma 2 Nordeste 0 -- -- 100
2019-10-10 03:00:00 9.6 0 Calma 2 Nordeste 0 -- -- 100
2019-10-10 02:00:00 9.8 0 Calma 2 Nordeste 0 -- -- 100
2019-10-10 01:00:00 9.5 0 Calma 2 Nordeste 0 -- -- 100
2019-10-10 00:00:00 9.8 0 Calma 2 Nordeste 0 -- -- 100
2019-10-09 23:00:00 10.2 0 Calma 3 Nordeste 0 -- -- 99
2019-10-09 22:00:00 10.5 0 Calma 3 Nordeste 0 -- -- 98
2019-10-09 21:00:00 11.1 0 Calma 3 Este 0 -- -- 96
2019-10-09 20:00:00 11.9 0 Calma 8 Este 0 -- -- 92
2019-10-09 19:00:00 13.8 0 Calma 8 Sur 0 -- -- 87
2019-10-09 18:00:00 14.6 4 Este 17 Sudeste 0 -- -- 82
2019-10-09 17:00:00 14.7 5 Sur 18 Este 0 -- -- 81
2019-10-09 16:00:00 14.3 3 Nordeste 18 Este 0 -- -- 84
2019-10-09 15:00:00 13.7 6 Este 17 Sudeste 0 -- -- 93
2019-10-09 14:00:00 14 5 Este 22 Este 0 -- -- 92
2019-10-09 13:00:00 14 6 Oeste 13 Oeste 0 -- -- 85
2019-10-09 12:00:00 14 2 Sudeste 7 Este 0 -- -- 96
2019-10-09 11:00:00 13.1 0 Calma 3 Sudeste 0 -- -- 100
2019-10-09 10:00:00 12.7 0 Calma 6 Sur 0.4 -- -- 100
2019-10-09 09:00:00 12.2 2 Este 5 Este 0.6 -- -- 100
2019-10-09 08:00:00 12.2 0 Calma 6 Este 0 -- -- 100
2019-10-09 07:00:00 12.3 2 Sudeste 9 Sur 0.4 -- -- 100
2019-10-09 06:00:00 12.7 3 Sudoeste 8 Oeste 0.2 -- -- 100
2019-10-09 05:00:00 13 0 Calma 4 Oeste 0.2 -- -- 99
2019-10-09 04:00:00 13.2 0 Calma 5 Noroeste 0 -- -- 99
2019-10-09 03:00:00 13.3 0 Calma 4 Noroeste 0 -- -- 98
2019-10-09 02:00:00 13.6 0 Calma 6 Oeste 0.2 -- -- 98
2019-10-09 01:00:00 14.2 0 Calma 7 Norte 0.4 -- -- 99
2019-10-09 00:00:00 14.4 2 Este 10 Nordeste 0.2 -- -- 98
2019-10-08 23:00:00 14.9 3 Oeste 18 Noroeste 0.6 -- -- 96
2019-10-08 22:00:00 16.2 2 Sudoeste 9 Sur 0.8 -- -- 96
2019-10-08 21:00:00 17 3 Este 8 Nordeste 0.2 -- -- 92
2019-10-08 20:00:00 18 4 Sur 12 Sudoeste 0 -- -- 84
2019-10-08 19:00:00 19.5 2 Este 12 Este 0 -- -- 74
2019-10-08 18:00:00 21.8 3 Este 13 Nordeste 0 -- -- 57
2019-10-08 17:00:00 22.8 5 Sudoeste 13 Este 0 -- -- 49
2019-10-08 16:00:00 23.8 4 Norte 14 Nordeste 0 -- -- 42
2019-10-08 15:00:00 23.9 4 Nordeste 14 Este 0 -- -- 43
2019-10-08 14:00:00 23.6 5 Nordeste 15 Este 0 -- -- 44
2019-10-08 13:00:00 24 4 Sur 6 Sur 0 -- -- 54
2019-10-08 12:00:00 20.3 0 Calma -- -- 0 -- -- 60
2019-10-08 11:00:00 16 0 Calma 3 Norte 0 -- -- 70
2019-10-08 10:00:00 11.1 0 Calma 0 Calma 0 -- -- 79
2019-10-08 09:00:00 8.4 0 Calma 2 Norte 0 -- -- 73
2019-10-08 08:00:00 8 0 Calma 0 Calma 0 -- -- 75
2019-10-08 07:00:00 8.1 0 Calma 2 Norte 0 -- -- 80
2019-10-08 06:00:00 8.2 0 Calma 2 Norte 0 -- -- 87
2019-10-08 05:00:00 8 0 Calma 2 Norte 0 -- -- 94
2019-10-08 04:00:00 8.5 0 Calma 2 Norte 0 -- -- 96
2019-10-08 03:00:00 8.9 0 Calma 2 Norte 0 -- -- 98
2019-10-08 02:00:00 9.2 0 Calma 3 Norte 0 -- -- 98
2019-10-08 01:00:00 9.2 0 Calma 0 Calma 0 -- -- 98
2019-10-08 00:00:00 9.4 0 Calma 2 Norte 0 -- -- 96
2019-10-07 23:00:00 9.6 0 Calma 2 Norte 0 -- -- 94
2019-10-07 22:00:00 10.3 0 Calma 2 Norte 0 -- -- 91
2019-10-07 21:00:00 11.5 0 Calma 2 Norte 0 -- -- 87
2019-10-07 20:00:00 13.3 0 Calma 3 Norte 0 -- -- 82
2019-10-07 19:00:00 16.8 0 Calma 7 Oeste 0 -- -- 69
2019-10-07 18:00:00 20.3 0 Calma 8 Este 0 -- -- 54
2019-10-07 17:00:00 20.1 3 Oeste 13 Noroeste 0 -- -- 51
2019-10-07 16:00:00 19.5 4 Este 10 Oeste 0 -- -- 61
2019-10-07 15:00:00 17.7 7 Noroeste 20 Oeste 0 -- -- 69
2019-10-07 14:00:00 18.7 4 Sudoeste 13 Nordeste 0 -- -- 63
2019-10-07 13:00:00 17.7 3 Norte 10 Este 0 -- -- 75
2019-10-07 12:00:00 15.3 3 Nordeste 10 Este 0 -- -- 87
2019-10-07 11:00:00 13.4 0 Calma 3 Sur 0 -- -- 100
2019-10-07 10:00:00 11.7 0 Calma 2 Oeste 0 -- -- 100
2019-10-07 09:00:00 10.4 0 Calma 3 Noroeste 0 -- -- 100
2019-10-07 08:00:00 9.9 0 Calma 3 Noroeste 0.2 -- -- 100
2019-10-07 07:00:00 9.7 0 Calma 0 Calma 0 -- -- 100
2019-10-07 06:00:00 9.7 0 Calma 2 Noroeste 0 -- -- 100
2019-10-07 05:00:00 10.3 0 Calma 2 Sudeste 0 -- -- 100
2019-10-07 04:00:00 10.4 0 Calma 0 Calma 0 -- -- 100
2019-10-07 03:00:00 10.6 0 Calma 2 Noroeste 0 -- -- 100
2019-10-07 02:00:00 10.8 0 Calma 2 Nordeste 0 -- -- 100
2019-10-07 01:00:00 11.5 0 Calma 5 Este 0 -- -- 100
2019-10-07 00:00:00 12 2 Sur 7 Sur 0 -- -- 99
2019-10-06 23:00:00 12.7 3 Sur 8 Este 0 -- -- 99
2019-10-06 22:00:00 13.1 3 Sudoeste 12 Sudeste 0.4 -- -- 99
2019-10-06 21:00:00 13.1 4 Nordeste 18 Noroeste 0.2 -- -- 99
2019-10-06 20:00:00 13.3 4 Sudeste 10 Sur 0 -- -- 99
2019-10-06 19:00:00 13.7 3 Sudeste 9 Sur 0 -- -- 99
2019-10-06 18:00:00 13.6 2 Sudeste 12 Sudeste 0.4 -- -- 99
2019-10-06 17:00:00 13.9 3 Sur 12 Oeste 1.2 -- -- 96
2019-10-06 16:00:00 15.5 2 Sudoeste 11 Norte 0.2 -- -- 91
2019-10-06 15:00:00 14.6 3 Sur 9 Sudoeste 0.6 -- -- 97
2019-10-06 14:00:00 15.1 3 Nordeste 5 Este 0.2 -- -- 95
2019-10-06 13:00:00 14.4 0 Calma 9 Sudoeste 0 -- -- 95
2019-10-06 12:00:00 14.6 3 Sudoeste 12 Sur 0 -- -- 89
2019-10-06 11:00:00 13.9 4 Noroeste 12 Noroeste 0 -- -- 95
2019-10-06 10:00:00 12.6 0 Calma 4 Nordeste 0 -- -- 100
2019-10-06 09:00:00 11.8 0 Calma 4 Nordeste 0 -- -- 100
2019-10-06 08:00:00 11.4 0 Calma 3 Nordeste 0 -- -- 100
2019-10-06 07:00:00 11 0 Calma 2 Nordeste 0 -- -- 100
2019-10-06 06:00:00 10.8 0 Calma 2 Nordeste 0 -- -- 100
2019-10-06 05:00:00 11 0 Calma 2 Nordeste 0 -- -- 98
2019-10-06 04:00:00 12.2 0 Calma 4 Nordeste 0 -- -- 96
2019-10-06 03:00:00 12.9 0 Calma 5 Nordeste 0 -- -- 98
2019-10-06 02:00:00 13.1 0 Calma 4 Este 0 -- -- 97
2019-10-06 01:00:00 13.1 3 Nordeste 6 Nordeste 0 -- -- 98
2019-10-06 00:00:00 13.6 2 Sudeste 5 Sudeste 0 -- -- 97
2019-10-05 23:00:00 13.8 0 Calma 3 Sudeste 0 -- -- 96
2019-10-05 22:00:00 14 0 Calma 5 Sudeste 0 -- -- 93
2019-10-05 21:00:00 14.4 0 Calma 9 Noroeste 0 -- -- 92
2019-10-05 20:00:00 14.9 2 Noroeste 6 Norte 0 -- -- 88
2019-10-05 19:00:00 15.7 2 Nordeste 9 Nordeste 0 -- -- 86
2019-10-05 18:00:00 16.4 0 Calma 5 Norte 0 -- -- 79
2019-10-05 17:00:00 16.3 3 Este 9 Este 0 -- -- 84
2019-10-05 16:00:00 16.9 0 Calma 7 Noroeste 0 -- -- 82
2019-10-05 15:00:00 16.2 2 Nordeste 13 Noroeste 0 -- -- 84
2019-10-05 14:00:00 16.4 0 Calma 9 Nordeste 0 -- -- 86
2019-10-05 13:00:00 15.7 3 Nordeste 9 Nordeste 0 -- -- 89
2019-10-05 12:00:00 15.4 2 Este 7 Este 0 -- -- 95
2019-10-05 11:00:00 14.2 0 Calma 6 Nordeste 0 -- -- 100
2019-10-05 10:00:00 13.1 0 Calma 2 Sudoeste 0 -- -- 100
2019-10-05 09:00:00 12.3 0 Calma 3 Noroeste 0 -- -- 100
2019-10-05 08:00:00 12.6 0 Calma 2 Noroeste 0 -- -- 100
2019-10-05 07:00:00 13 0 Calma 4 Este 0 -- -- 100
2019-10-05 06:00:00 13.2 0 Calma 4 Este 0.2 -- -- 100
2019-10-05 05:00:00 13.1 0 Calma 2 Sur 0 -- -- 100
2019-10-05 04:00:00 13.2 0 Calma -- -- 0 -- -- 100
2019-10-05 03:00:00 13.2 0 Calma 0 Calma 0 -- -- 100
2019-10-05 02:00:00 13.2 0 Calma 2 Norte 0.2 -- -- 100
2019-10-05 01:00:00 13.2 0 Calma 2 Sudeste 0 -- -- 100
2019-10-05 00:00:00 13.2 0 Calma 3 Sur 0.2 -- -- 100
2019-10-04 23:00:00 13.2 0 Calma 9 Este 0.4 -- -- 100
2019-10-04 22:00:00 13.3 0 Calma 5 Este 0.4 -- -- 100
2019-10-04 21:00:00 13.6 0 Calma 5 Este 0 -- -- 99
2019-10-04 20:00:00 13.9 0 Calma 6 Este 0 -- -- 98
2019-10-04 19:00:00 14.5 0 Calma 7 Oeste 0 -- -- 98
2019-10-04 18:00:00 14.6 0 Calma 13 Norte 0.2 -- -- 97
2019-10-04 17:00:00 14.9 2 Sudeste 13 Norte 0.2 -- -- 98
2019-10-04 16:00:00 15.3 2 Norte 13 Este 0.8 -- -- 96
2019-10-04 15:00:00 15.9 2 Sudeste 7 Este 0 -- -- 99
2019-10-04 14:00:00 15.2 0 Calma 10 Este 0 -- -- 99
2019-10-04 13:00:00 15.3 5 Oeste 12 Norte 0.4 -- -- 99
2019-10-04 12:00:00 15.8 0 Calma 6 Oeste 0.6 -- -- 100
2019-10-04 11:00:00 15.6 2 Norte 5 Norte 0.4 -- -- 100
2019-10-04 10:00:00 15.4 0 Calma 2 Noroeste 0 -- -- 100
2019-10-04 09:00:00 14.7 0 Calma 4 Noroeste 0 -- -- 100
2019-10-04 08:00:00 14.2 0 Calma 3 Noroeste 0 -- -- 100
2019-10-04 07:00:00 13.8 0 Calma 2 Noroeste 0 -- -- 100
2019-10-04 06:00:00 13.4 0 Calma 2 Noroeste 0 -- -- 100
2019-10-04 05:00:00 12.8 0 Calma 2 Noroeste 0 -- -- 100
2019-10-04 04:00:00 12 0 Calma 0 Calma 0 -- -- 100
2019-10-04 03:00:00 11.4 0 Calma 2 Noroeste 0 -- -- 99
2019-10-04 02:00:00 11.1 0 Calma 2 Noroeste 0 -- -- 99
2019-10-04 01:00:00 11.6 0 Calma 2 Noroeste 0 -- -- 99
2019-10-04 00:00:00 11.3 0 Calma 2 Noroeste 0 -- -- 99
2019-10-03 23:00:00 11 0 Calma 2 Noroeste 0 -- -- 98
2019-10-03 22:00:00 11.1 0 Calma 3 Noroeste 0 -- -- 96
2019-10-03 21:00:00 12.2 0 Calma 2 Noroeste 0 -- -- 92
2019-10-03 20:00:00 14.2 0 Calma 8 Noroeste 0 -- -- 85
2019-10-03 19:00:00 17.4 0 Calma 8 Nordeste 0 -- -- 71
2019-10-03 18:00:00 18.9 5 Nordeste 15 Este 0 -- -- 66
2019-10-03 17:00:00 19.9 3 Nordeste 15 Nordeste 0 -- -- 65
2019-10-03 16:00:00 19.6 5 Nordeste 17 Este 0 -- -- 63
2019-10-03 15:00:00 19.6 5 Este 15 Este 0 -- -- 68
2019-10-03 14:00:00 18.9 6 Este 12 Este 0.2 -- -- 68
2019-10-03 13:00:00 18.2 3 Sur 10 Sur 0 -- -- 68
2019-10-03 12:00:00 16.8 4 Sur 9 Sur 0 -- -- 74
2019-10-03 11:00:00 14.3 3 Sur 5 Sudoeste 0 -- -- 94
2019-10-03 10:00:00 12.3 0 Calma 2 Sur 0 -- -- 100
2019-10-03 09:00:00 11.1 0 Calma 4 Sudoeste 0 -- -- 100
2019-10-03 08:00:00 11.9 0 Calma 3 Sudeste 0 -- -- 100
2019-10-03 07:00:00 12.2 0 Calma 2 Sudeste 0 -- -- 100
2019-10-03 06:00:00 12.3 0 Calma 2 Sudeste 0 -- -- 100
2019-10-03 05:00:00 12.3 0 Calma 3 Sudeste 0.2 -- -- 100
2019-10-03 04:00:00 12.3 0 Calma 3 Este 0.2 -- -- 100
2019-10-03 03:00:00 12.3 0 Calma 5 Este 0 -- -- 100
2019-10-03 02:00:00 12.4 0 Calma 6 Nordeste 0 -- -- 100
2019-10-03 01:00:00 12.4 0 Calma 15 Oeste 0.4 -- -- 99
2019-10-03 00:00:00 12.4 3 Norte 10 Oeste 0.2 -- -- 100
2019-10-02 23:00:00 12.5 0 Calma 7 Sur 0.2 -- -- 100
2019-10-02 22:00:00 12.7 2 Nordeste 13 Norte 0.4 -- -- 100
2019-10-02 21:00:00 12.8 3 Sudeste 10 Este 0.2 -- -- 99
2019-10-02 20:00:00 13 4 Sur 11 Sur 1 -- -- 97
2019-10-02 19:00:00 13.4 4 Sur 12 Sur 0 -- -- 97
2019-10-02 18:00:00 13.4 4 Sudeste 13 Sudoeste 2 -- -- 97
2019-10-02 17:00:00 14.1 2 Este 18 Norte 1.2 -- -- 95
2019-10-02 16:00:00 14.5 4 Sur 20 Sur 0.2 -- -- 93
2019-10-02 15:00:00 14.4 7 Noroeste 22 Noroeste 0.6 -- -- 90
2019-10-02 14:00:00 14.4 6 Sur 21 Sur 0 -- -- 93
2019-10-02 13:00:00 13.7 5 Sur 18 Noroeste 0.6 -- -- 94
2019-10-02 12:00:00 13.9 7 Oeste 36 Oeste 0.6 -- -- 91
2019-10-02 11:00:00 13.6 5 Oeste 27 Noroeste 0.6 -- -- 92
2019-10-02 10:00:00 13.1 6 Noroeste 22 Norte 0.2 -- -- 94
2019-10-02 09:00:00 12.4 5 Oeste 15 Norte 2.4 -- -- 98
2019-10-02 08:00:00 12.5 4 Noroeste 18 Oeste 1.8 -- -- 97
2019-10-02 07:00:00 12.3 4 Sur 17 Noroeste 2.4 -- -- 98
2019-10-02 06:00:00 12.3 5 Norte 17 Noroeste 2.6 -- -- 98
2019-10-02 05:00:00 12.5 4 Sur 23 Norte 2.2 -- -- 94
2019-10-02 04:00:00 13.6 5 Norte 27 Noroeste 0 -- -- 82
2019-10-02 03:00:00 13.3 4 Norte 18 Oeste 0 -- -- 88
2019-10-02 02:00:00 14 4 Norte 14 Noroeste 0 -- -- 92
2019-10-02 01:00:00 14 3 Este 8 Este 0.4 -- -- 98
2019-10-02 00:00:00 14.3 3 Sudeste 9 Este 0.2 -- -- 98
2019-10-01 23:00:00 14.5 0 Calma 10 Sudoeste 0.2 -- -- 97
2019-10-01 22:00:00 14.6 3 Sudeste 9 Sudeste 0.2 -- -- 97
2019-10-01 21:00:00 15 3 Sudeste 10 Sudoeste 0 -- -- 95
2019-10-01 20:00:00 15.2 0 Calma 10 Este 0 -- -- 91
2019-10-01 19:00:00 15.4 5 Sudeste 23 Nordeste 0 -- -- 91
2019-10-01 18:00:00 16.2 4 Sudeste 16 Este 0 -- -- 89
2019-10-01 17:00:00 16.7 5 Este 17 Nordeste 0 -- -- 87
2019-10-01 16:00:00 17.6 5 Este 16 Este 0 -- -- 85
2019-10-01 15:00:00 18.4 4 Este 15 Este 0 -- -- 82
2019-10-01 14:00:00 19.4 5 Este 17 Nordeste 0 -- -- 77
2019-10-01 13:00:00 19.8 2 Sur 14 Nordeste 0 -- -- 81
2019-10-01 12:00:00 18.6 3 Noroeste 14 Norte 0 -- -- 82
2019-10-01 11:00:00 18.6 4 Este 8 Este 0 -- -- 86
2019-10-01 10:00:00 16.7 0 Calma 6 Este 0 -- -- 93
2019-10-01 09:00:00 15.5 0 Calma 12 Nordeste 0 -- -- 90
2019-10-01 08:00:00 15.2 0 Calma 2 Este 0 -- -- 89
2019-10-01 07:00:00 14.8 0 Calma 5 Este 0 -- -- 94
2019-10-01 06:00:00 13.9 0 Calma 5 Este 0 -- -- 100
2019-10-01 05:00:00 13.7 0 Calma 2 Este 0 -- -- 99
2019-10-01 04:00:00 14.3 0 Calma 0 Calma 0 -- -- 99
2019-10-01 03:00:00 14.8 0 Calma 2 Nordeste 0 -- -- 98
2019-10-01 02:00:00 15.3 0 Calma 2 Este 0 -- -- 98
2019-10-01 01:00:00 15.7 0 Calma 0 Calma 0 -- -- 98
2019-10-01 00:00:00 15.9 0 Calma 2 Nordeste 0 -- -- 98
2019-09-30 23:00:00 16.4 0 Calma 2 Este 0 -- -- 96
2019-09-30 22:00:00 17 0 Calma 2 Nordeste 0 -- -- 94
2019-09-30 21:00:00 17.9 0 Calma 4 Este 0 -- -- 90
2019-09-30 20:00:00 19.7 0 Calma 3 Norte 0 -- -- 82
2019-09-30 19:00:00 23.5 0 Calma 8 Este 0 -- -- 67
2019-09-30 18:00:00 25.1 5 Nordeste 12 Este 0 -- -- 61
2019-09-30 17:00:00 26.1 4 Nordeste 10 Nordeste 0 -- -- 56
2019-09-30 16:00:00 26 4 Norte 15 Nordeste 0 -- -- 52
2019-09-30 15:00:00 25.5 6 Nordeste 11 Oeste 0 -- -- 59
2019-09-30 14:00:00 25.1 5 Nordeste 13 Este 0 -- -- 63
2019-09-30 13:00:00 24.4 4 Sudeste 9 Sur 0 -- -- 60
2019-09-30 12:00:00 22.5 2 Este 9 Este 0 -- -- 67
2019-09-30 11:00:00 20 0 Calma 6 Nordeste 0 -- -- 79
2019-09-30 10:00:00 16.5 0 Calma 6 Nordeste 0 -- -- 94
2019-09-30 09:00:00 14.8 0 Calma 5 Noroeste 0 -- -- 98
2019-09-30 08:00:00 15.1 0 Calma 5 Noroeste 0 -- -- 98
2019-09-30 07:00:00 15.2 0 Calma 3 Norte 0 -- -- 97
2019-09-30 06:00:00 15 0 Calma 2 Nordeste 0 -- -- 98
2019-09-30 05:00:00 14.6 0 Calma 2 Norte 0 -- -- 98
2019-09-30 04:00:00 14.2 0 Calma 2 Norte 0 -- -- 97
2019-09-30 03:00:00 14.4 0 Calma 4 Noroeste 0 -- -- 95
2019-09-30 02:00:00 13.9 0 Calma 2 Norte 0 -- -- 94
2019-09-30 01:00:00 14.3 0 Calma 2 Norte 0 -- -- 91
2019-09-30 00:00:00 14 0 Calma 2 Norte 0 -- -- 91
2019-09-29 23:00:00 13.2 0 Calma 5 Nordeste 0 -- -- 88
2019-09-29 22:00:00 13.8 0 Calma 3 Norte 0 -- -- 81
2019-09-29 21:00:00 15.1 0 Calma 3 Norte 0 -- -- 72
2019-09-29 20:00:00 17.1 0 Calma 11 Norte 0 -- -- 59
2019-09-29 19:00:00 20.8 6 Noroeste 14 Noroeste 0 -- -- 41
2019-09-29 18:00:00 24.7 4 Norte 13 Nordeste 0 -- -- 43
2019-09-29 17:00:00 26.1 4 Nordeste 15 Nordeste 0 -- -- 44
2019-09-29 16:00:00 27.5 4 Noroeste 23 Oeste 0 -- -- 35
2019-09-29 15:00:00 27.2 10 Sudoeste 23 Noroeste 0 -- -- 33
2019-09-29 14:00:00 26.5 9 Oeste 34 Sur 0 -- -- 33
2019-09-29 13:00:00 25.1 13 Oeste 32 Sur 0 -- -- 42
2019-09-29 12:00:00 23.8 8 Sudoeste 30 Sur 0 -- -- 58
2019-09-29 11:00:00 21.4 16 Sudoeste 28 Noroeste 0 -- -- 65
2019-09-29 10:00:00 20.3 14 Sudoeste 28 Sudoeste 0 -- -- 64
2019-09-29 09:00:00 19.2 14 Oeste 33 Oeste 0 -- -- 69
2019-09-29 08:00:00 19.1 17 Oeste 32 Sudoeste 0 -- -- 68
2019-09-29 07:00:00 19.1 13 Oeste 28 Oeste 0 -- -- 70
2019-09-29 06:00:00 19.4 15 Oeste 27 Oeste 0 -- -- 68
2019-09-29 05:00:00 19.4 10 Oeste 26 Oeste 0 -- -- 68
2019-09-29 04:00:00 19.7 13 Oeste 32 Sudoeste 0 -- -- 65
2019-09-29 03:00:00 19.9 9 Oeste 24 Sudoeste 0 -- -- 61
2019-09-29 02:00:00 19.8 10 Sudoeste 24 Sudoeste 0 -- -- 60
2019-09-29 01:00:00 20.1 15 Oeste 28 Oeste 0 -- -- 60
2019-09-29 00:00:00 14.8 3 Norte 10 Noroeste 0 -- -- 91
2019-09-28 23:00:00 14.4 0 Calma 4 Este 0 -- -- 97
2019-09-28 22:00:00 15 0 Calma 4 Nordeste 0 -- -- 96
2019-09-28 21:00:00 16.3 0 Calma 5 Este 0 -- -- 92
2019-09-28 20:00:00 18.3 0 Calma 5 Nordeste 0 -- -- 88
2019-09-28 19:00:00 21.4 2 Nordeste 8 Este 0 -- -- 77
2019-09-28 18:00:00 23.1 3 Nordeste 10 Este 0 -- -- 71
2019-09-28 17:00:00 23.2 4 Nordeste 12 Este 0 -- -- 69
2019-09-28 16:00:00 23.5 4 Nordeste 15 Este 0 -- -- 66
2019-09-28 15:00:00 23 6 Nordeste 15 Nordeste 0 -- -- 66
2019-09-28 14:00:00 22.4 4 Este 11 Nordeste 0 -- -- 70
2019-09-28 13:00:00 21.3 4 Este 10 Este 0 -- -- 74
2019-09-28 12:00:00 19 2 Sudeste 10 Sur 0 -- -- 80
2019-09-28 11:00:00 15.4 0 Calma 4 Sudeste 0 -- -- 93
2019-09-28 10:00:00 14.6 0 Calma 3 Sur 0 -- -- 99
2019-09-28 09:00:00 13.8 0 Calma 2 Sur 0 -- -- 99
2019-09-28 08:00:00 13.7 0 Calma -- -- 0 -- -- 99
2019-09-28 07:00:00 13.7 0 Calma 2 Sur 0 -- -- 99
2019-09-28 06:00:00 13.8 0 Calma -- -- 0 -- -- 99
2019-09-28 05:00:00 13.8 0 Calma -- -- 0 -- -- 99
2019-09-28 04:00:00 13.8 0 Calma -- -- 0 -- -- 99
2019-09-28 03:00:00 13.8 0 Calma 3 Sur 0 -- -- 98
2019-09-28 02:00:00 13.9 0 Calma 4 Sudeste 0 -- -- 98
2019-09-28 01:00:00 14 3 Sur 15 Oeste 0.2 -- -- 96
2019-09-28 00:00:00 14.6 0 Calma 5 Sur 0.2 -- -- 97
2019-09-27 23:00:00 15 3 Sur 13 Oeste 0.2 -- -- 94
2019-09-27 22:00:00 15.9 0 Calma 9 Nordeste 0 -- -- 89
2019-09-27 21:00:00 16.3 3 Norte 16 Norte 0 -- -- 89
2019-09-27 20:00:00 17.6 3 Norte 13 Norte 0 -- -- 85
2019-09-27 19:00:00 19.9 2 Nordeste 10 Nordeste 0 -- -- 75
2019-09-27 18:00:00 20.5 2 Nordeste 14 Este 0 -- -- 74
2019-09-27 17:00:00 21.7 5 Nordeste 16 Nordeste 0 -- -- 69
2019-09-27 16:00:00 21.6 3 Nordeste 16 Nordeste 0 -- -- 70
2019-09-27 15:00:00 22.5 3 Nordeste 16 Nordeste 0 -- -- 68
2019-09-27 14:00:00 21.6 5 Noroeste 15 Noroeste 0 -- -- 67
2019-09-27 13:00:00 20.8 4 Norte 12 Sur 0 -- -- 65
2019-09-27 12:00:00 21.1 3 Sudoeste 9 Sudoeste 0 -- -- 64
2019-09-27 11:00:00 17.2 0 Calma 4 Noroeste 0 -- -- 84
2019-09-27 10:00:00 12.6 0 Calma 3 Noroeste 0 -- -- 100
2019-09-27 09:00:00 10 0 Calma 0 Calma 0 -- -- 99
2019-09-27 08:00:00 10.2 0 Calma 2 Noroeste 0 -- -- 97
2019-09-27 07:00:00 11.5 0 Calma 3 Noroeste 0 -- -- 96
2019-09-27 06:00:00 12.4 0 Calma 6 Noroeste 0 -- -- 95
2019-09-27 05:00:00 13.4 4 Noroeste 6 Noroeste 0 -- -- 94
2019-09-27 04:00:00 14.5 0 Calma 6 Noroeste 0 -- -- 96
2019-09-27 03:00:00 14.8 0 Calma 3 Noroeste 0 -- -- 97
2019-09-27 02:00:00 15 0 Calma 5 Nordeste 0 -- -- 96
2019-09-27 01:00:00 15.7 2 Norte 6 Noroeste 0 -- -- 96
2019-09-27 00:00:00 15.8 0 Calma 4 Norte 0 -- -- 96
2019-09-26 23:00:00 15.9 0 Calma 5 Nordeste 0 -- -- 95
2019-09-26 22:00:00 16 2 Nordeste 8 Norte 0 -- -- 94
2019-09-26 21:00:00 16.4 0 Calma 7 Nordeste 0 -- -- 92
2019-09-26 20:00:00 17.4 0 Calma 7 Este 0 -- -- 87
2019-09-26 19:00:00 19.4 3 Nordeste 15 Este 0 -- -- 78
2019-09-26 18:00:00 22 3 Nordeste 12 Nordeste 0 -- -- 71
2019-09-26 17:00:00 22.6 4 Nordeste 15 Nordeste 0 -- -- 69
2019-09-26 16:00:00 23.1 4 Nordeste 15 Este 0 -- -- 64
2019-09-26 15:00:00 23.2 4 Nordeste 15 Nordeste 0 -- -- 63
2019-09-26 14:00:00 22.7 4 Nordeste 14 Nordeste 0 -- -- 63
2019-09-26 13:00:00 21.2 5 Este 12 Este 0 -- -- 68
2019-09-26 12:00:00 19.9 6 Este 12 Este 0 -- -- 72
2019-09-26 11:00:00 17 2 Sudeste 6 Sur 0 -- -- 84
2019-09-26 10:00:00 13.1 0 Calma -- -- 0 -- -- 100
2019-09-26 09:00:00 10.7 0 Calma -- -- 0 -- -- 100
2019-09-26 08:00:00 10.4 0 Calma 0 Calma 0 -- -- 100
2019-09-26 07:00:00 10.2 0 Calma -- -- 0 -- -- 100
2019-09-26 06:00:00 10.4 0 Calma -- -- 0 -- -- 100
2019-09-26 05:00:00 10.7 0 Calma -- -- 0 -- -- 99
2019-09-26 04:00:00 11.1 0 Calma 0 Calma 0 -- -- 99
2019-09-26 03:00:00 11.7 0 Calma -- -- 0 -- -- 98
2019-09-26 02:00:00 12.4 0 Calma -- -- 0 -- -- 97
2019-09-26 01:00:00 12.9 0 Calma -- -- 0 -- -- 97
2019-09-26 00:00:00 13 0 Calma -- -- 0 -- -- 95
2019-09-25 23:00:00 13.9 0 Calma 2 Nordeste 0 -- -- 93
2019-09-25 22:00:00 14.3 0 Calma 3 Nordeste 0 -- -- 92
2019-09-25 21:00:00 14.9 0 Calma 4 Este 0 -- -- 88
2019-09-25 20:00:00 15.8 0 Calma 10 Nordeste 0 -- -- 84
2019-09-25 19:00:00 17.1 2 Nordeste 10 Nordeste 0 -- -- 78
2019-09-25 18:00:00 17.5 3 Este 11 Nordeste 0 -- -- 77
2019-09-25 17:00:00 17.6 5 Nordeste 13 Nordeste 0 -- -- 75
2019-09-25 16:00:00 18.2 4 Este 11 Nordeste 0 -- -- 70
2019-09-25 15:00:00 17.5 2 Nordeste 14 Sur 0 -- -- 71
2019-09-25 14:00:00 17.7 6 Sudoeste 15 Oeste 0 -- -- 70
2019-09-25 13:00:00 17.3 10 Sudoeste 19 Sur 0 -- -- 69
2019-09-25 12:00:00 15.8 5 Sudoeste 18 Sur 0 -- -- 75
2019-09-25 11:00:00 15.1 6 Sudoeste 17 Sudoeste 0 -- -- 78
2019-09-25 10:00:00 14.6 3 Sur 13 Sur 0 -- -- 83
2019-09-25 09:00:00 12.8 5 Oeste 17 Noroeste 0 -- -- 89
2019-09-25 08:00:00 12.2 0 Calma 12 Noroeste 0 -- -- 92
2019-09-25 07:00:00 12.8 0 Calma 6 Oeste 0 -- -- 99
2019-09-25 06:00:00 13.1 0 Calma 2 Este 0 -- -- 99
2019-09-25 05:00:00 13.1 0 Calma 3 Este 0 -- -- 99
2019-09-25 04:00:00 13.2 0 Calma 2 Este 0 -- -- 99
2019-09-25 03:00:00 13.2 0 Calma 3 Este 0 -- -- 98
2019-09-25 02:00:00 13.3 0 Calma 3 Sudeste 0 -- -- 98
2019-09-25 01:00:00 13.4 0 Calma 4 Este 1 -- -- 97
2019-09-25 00:00:00 13.8 0 Calma 3 Este 0.2 -- -- 96
2019-09-24 23:00:00 13.9 0 Calma 7 Nordeste 0.2 -- -- 95
2019-09-24 22:00:00 14.7 4 Sudoeste 12 Oeste 0.2 -- -- 90
2019-09-24 21:00:00 15.4 0 Calma 6 Norte 0 -- -- 80
2019-09-24 20:00:00 15.9 0 Calma 6 Nordeste 0 -- -- 74
2019-09-24 19:00:00 16.6 4 Nordeste 18 Este 0 -- -- 74
2019-09-24 18:00:00 17.7 3 Nordeste 15 Nordeste 0 -- -- 80
2019-09-24 17:00:00 18.4 3 Nordeste 15 Nordeste 0 -- -- 83
2019-09-24 16:00:00 19.4 4 Sudeste 16 Nordeste 0 -- -- 80
2019-09-24 15:00:00 21.9 7 Noroeste 24 Norte 0 -- -- 67
2019-09-24 14:00:00 24.1 4 Nordeste 15 Oeste 0 -- -- 54
2019-09-24 13:00:00 23 6 Sudoeste 15 Sudeste 0 -- -- 55
2019-09-24 12:00:00 21.7 5 Sur 18 Sudoeste 0 -- -- 57
2019-09-24 11:00:00 20 14 Sudoeste 23 Sur 0 -- -- 56
2019-09-24 10:00:00 18.8 0 Calma 15 Sur 0 -- -- 63
2019-09-24 09:00:00 19 7 Sudoeste 26 Sur 0 -- -- 55
2019-09-24 08:00:00 19.9 12 Sudoeste 31 Noroeste 0 -- -- 52
2019-09-24 07:00:00 19.7 10 Sudoeste 31 Sudoeste 0 -- -- 51
2019-09-24 06:00:00 19.1 15 Sudoeste 40 Sur 0 -- -- 52
2019-09-24 05:00:00 19.4 13 Sudoeste 32 Sudoeste 0 -- -- 51
2019-09-24 04:00:00 16.5 2 Norte 15 Sudoeste 0 -- -- 67
2019-09-24 03:00:00 18.3 5 Sudoeste 16 Sudoeste 0 -- -- 59
2019-09-24 02:00:00 18 6 Oeste 13 Oeste 0 -- -- 62
2019-09-24 01:00:00 15.6 0 Calma 3 Sudoeste 0 -- -- 80
2019-09-24 00:00:00 15.3 0 Calma 5 Oeste 0 -- -- 84
2019-09-23 23:00:00 15.2 0 Calma 4 Sudoeste 0 -- -- 85
2019-09-23 22:00:00 15.7 0 Calma 3 Sudoeste 0 -- -- 81
2019-09-23 21:00:00 16.3 0 Calma 4 Sur 0 -- -- 79
2019-09-23 20:00:00 17.7 0 Calma 5 Sur 0 -- -- 76
2019-09-23 19:00:00 19.4 0 Calma 6 Sur 0 -- -- 74
2019-09-23 18:00:00 20.6 3 Sudoeste 14 Sudoeste 0 -- -- 56
2019-09-23 17:00:00 21 6 Sudoeste 13 Sur 0 -- -- 50
2019-09-23 16:00:00 21.4 8 Sur 15 Sudoeste 0 -- -- 51
2019-09-23 15:00:00 21.1 7 Sur 16 Sudoeste 0.2 -- -- 50
2019-09-23 14:00:00 20.3 9 Sudoeste 20 Sudoeste 0 -- -- 57
2019-09-23 13:00:00 18.4 6 Sudoeste 15 Sur 0 -- -- 65
2019-09-23 12:00:00 18.4 5 Sudoeste 14 Sur 0 -- -- 65
2019-09-23 11:00:00 17.3 3 Sudoeste 10 Sudoeste 0 -- -- 72
2019-09-23 10:00:00 13.7 2 Oeste 5 Oeste 0 -- -- 100
2019-09-23 09:00:00 11.1 0 Calma -- -- 0 -- -- 100
2019-09-23 08:00:00 10.4 0 Calma -- -- 0 -- -- 100
2019-09-23 07:00:00 10.2 0 Calma 0 Calma 0 -- -- 100
2019-09-23 06:00:00 10.1 0 Calma 0 Calma 0 -- -- 100
2019-09-23 05:00:00 10.1 0 Calma 0 Calma 0 -- -- 100
2019-09-23 04:00:00 10.1 0 Calma 0 Calma 0 -- -- 100
2019-09-23 03:00:00 10.4 0 Calma -- -- 0 -- -- 100
2019-09-23 02:00:00 10.8 0 Calma -- -- 0 -- -- 100
2019-09-23 01:00:00 11.4 0 Calma 0 Calma 0 -- -- 99
2019-09-23 00:00:00 12.1 0 Calma 0 Calma 0 -- -- 97
2019-09-22 23:00:00 13.1 0 Calma 2 Noroeste 0 -- -- 96
2019-09-22 22:00:00 14.3 0 Calma 8 Noroeste 0.4 -- -- 95
2019-09-22 21:00:00 15.2 0 Calma 8 Noroeste 0.2 -- -- 88
2019-09-22 20:00:00 15.8 3 Norte 12 Norte 0 -- -- 82
2019-09-22 19:00:00 17.5 2 Nordeste 14 Norte 0 -- -- 75
2019-09-22 18:00:00 19.5 4 Nordeste 13 Este 0 -- -- 70
2019-09-22 17:00:00 20.8 5 Este 12 Este 0 -- -- 65
2019-09-22 16:00:00 19.7 4 Noroeste 21 Sudoeste 0 -- -- 61
2019-09-22 15:00:00 19.7 9 Sudoeste 18 Sudoeste 0 -- -- 62
2019-09-22 14:00:00 18.6 4 Oeste 15 Sur 0 -- -- 67
2019-09-22 13:00:00 17.8 3 Oeste 9 Oeste 0 -- -- 76
2019-09-22 12:00:00 16.7 3 Sudoeste 9 Sur 0 -- -- 84
2019-09-22 11:00:00 15.8 2 Oeste 5 Noroeste 0 -- -- 98
2019-09-22 10:00:00 14.5 0 Calma 9 Noroeste 0 -- -- 99
2019-09-22 09:00:00 14.2 0 Calma 9 Nordeste 0.4 -- -- 98
2019-09-22 08:00:00 14.8 2 Nordeste 20 Oeste 6 -- -- 97
2019-09-22 07:00:00 15.1 3 Norte 13 Nordeste 1.6 -- -- 95
2019-09-22 06:00:00 16.7 2 Norte 22 Nordeste 2.2 -- -- 92
2019-09-22 05:00:00 19.9 6 Sudeste 24 Sur 0 -- -- 74
2019-09-22 04:00:00 20.2 10 Sur 37 Sudoeste 0 -- -- 71
2019-09-22 03:00:00 20.3 18 Sur 36 Sur 0 -- -- 69
2019-09-22 02:00:00 20.3 10 Sur 44 Sur 0 -- -- 67
2019-09-22 01:00:00 20.5 19 Sur 46 Sur 0 -- -- 66
2019-09-22 00:00:00 20.1 19 Sur 32 Sur 0 -- -- 66
2019-09-21 23:00:00 20.1 6 Sudoeste 27 Sur 0 -- -- 65
2019-09-21 22:00:00 21.2 13 Sur 29 Sudoeste 0 -- -- 60
2019-09-21 21:00:00 21.8 16 Sur 33 Sur 0 -- -- 56
2019-09-21 20:00:00 22 22 Sur 35 Sur 0 -- -- 59
2019-09-21 19:00:00 22 12 Sur 29 Sudeste 0 -- -- 60
2019-09-21 18:00:00 21.9 15 Sur 31 Sur 0 -- -- 63
2019-09-21 17:00:00 23.2 12 Sur 23 Sudoeste 0 -- -- 61
2019-09-21 16:00:00 22.8 13 Sur 34 Sur 0 -- -- 61
2019-09-21 15:00:00 24 20 Sudoeste 39 Sudoeste 0 -- -- 58
2019-09-21 14:00:00 22.3 16 Sur 37 Sur 0 -- -- 65
2019-09-21 13:00:00 21.4 18 Sur 35 Sur 0.2 -- -- 69
2019-09-21 12:00:00 18.7 9 Sudoeste 22 Sudeste 0 -- -- 80
2019-09-21 11:00:00 18.1 8 Sur 32 Sur 0 -- -- 83
2019-09-21 10:00:00 18.1 17 Sur 41 Sur 0 -- -- 82
2019-09-21 09:00:00 17.9 17 Sur 46 Sudoeste 0 -- -- 83
2019-09-21 08:00:00 17.6 25 Sur 44 Sudoeste 0 -- -- 84
2019-09-21 07:00:00 17.2 19 Sur 49 Sudoeste 0 -- -- 84
2019-09-21 06:00:00 16.9 22 Sudoeste 48 Sudoeste 0 -- -- 86
2019-09-21 05:00:00 16.8 16 Sudoeste 40 Sudoeste 0 -- -- 87
2019-09-21 04:00:00 17 13 Sur 54 Sur 0.4 -- -- 87
2019-09-21 03:00:00 18.5 14 Sur 49 Sudoeste 0 -- -- 77
2019-09-21 02:00:00 19.1 31 Sur 58 Sudoeste 0 -- -- 77
2019-09-21 01:00:00 20.1 23 Sudoeste 49 Oeste 0 -- -- 73
2019-09-21 00:00:00 20.7 12 Sur 47 Sudoeste 0 -- -- 70
2019-09-20 23:00:00 21.2 31 Sudoeste 48 Sudoeste 0 -- -- 67
2019-09-20 22:00:00 22.2 24 Sudoeste 49 Sudoeste 0 -- -- 65
2019-09-20 21:00:00 23.1 10 Sur 32 Sur 0 -- -- 54
2019-09-20 20:00:00 23.5 15 Sur 37 Sudoeste 0 -- -- 55
2019-09-20 19:00:00 24 7 Sur 31 Sudoeste 0 -- -- 57
2019-09-20 18:00:00 24.7 16 Sur 42 Sudoeste 0 -- -- 55
2019-09-20 17:00:00 25 18 Sudoeste 44 Sudoeste 0 -- -- 52
2019-09-20 16:00:00 26.5 18 Sudoeste 48 Sur 0 -- -- 50
2019-09-20 15:00:00 26 18 Sudoeste 52 Sudoeste 0 -- -- 51
2019-09-20 14:00:00 25.1 17 Sur 39 Sudoeste 0 -- -- 53
2019-09-20 13:00:00 24 13 Sur 42 Sudeste 0 -- -- 57
2019-09-20 12:00:00 22.4 10 Sur 40 Sur 0 -- -- 64
2019-09-20 11:00:00 20.8 14 Sur 45 Sudoeste 0 -- -- 68
2019-09-20 10:00:00 19.6 29 Sur 47 Sudoeste 0 -- -- 72
2019-09-20 09:00:00 19 26 Sudoeste 46 Sudoeste 0 -- -- 74
2019-09-20 08:00:00 18.7 27 Sudoeste 45 Sudoeste 0 -- -- 76
2019-09-20 07:00:00 18.8 19 Sudoeste 35 Sur 0 -- -- 76
2019-09-20 06:00:00 19 15 Sudoeste 31 Sur 0 -- -- 76
2019-09-20 05:00:00 19.3 14 Sudoeste 27 Sur 0 -- -- 76
2019-09-20 04:00:00 19 13 Sudoeste 24 Oeste 0 -- -- 79
2019-09-20 03:00:00 15.8 4 Oeste 9 Sur 0 -- -- 100
2019-09-20 02:00:00 15.2 0 Calma 2 Nordeste 0 -- -- 100
2019-09-20 01:00:00 15.8 0 Calma 3 Nordeste 0 -- -- 100
2019-09-20 00:00:00 15.7 0 Calma 4 Este 0 -- -- 99
2019-09-19 23:00:00 15.8 0 Calma 4 Norte 0 -- -- 98
2019-09-19 22:00:00 16.3 0 Calma 3 Nordeste 0 -- -- 96
2019-09-19 21:00:00 17.2 0 Calma 6 Este 0 -- -- 93
2019-09-19 20:00:00 18.5 2 Nordeste 9 Este 0 -- -- 88
2019-09-19 19:00:00 20.2 3 Nordeste 14 Norte 0 -- -- 82
2019-09-19 18:00:00 21.5 4 Nordeste 13 Norte 0 -- -- 80
2019-09-19 17:00:00 23.6 3 Norte 15 Nordeste 0 -- -- 72
2019-09-19 16:00:00 23.9 5 Nordeste 15 Este 0 -- -- 68
2019-09-19 15:00:00 23.9 4 Nordeste 12 Nordeste 0 -- -- 65
2019-09-19 14:00:00 23.1 5 Este 14 Nordeste 0 -- -- 69
2019-09-19 13:00:00 21.9 4 Nordeste 14 Este 0 -- -- 71
2019-09-19 12:00:00 20.3 5 Este 9 Este 0 -- -- 76
2019-09-19 11:00:00 18 5 Sur 9 Sudoeste 0 -- -- 86
2019-09-19 10:00:00 15.5 0 Calma 4 Norte 0 -- -- 100
2019-09-19 09:00:00 14.5 0 Calma 3 Norte 0 -- -- 100
2019-09-19 08:00:00 14.1 0 Calma 2 Norte 0 -- -- 100
2019-09-19 07:00:00 13.5 0 Calma 2 Norte 0 -- -- 100
2019-09-19 06:00:00 13.7 0 Calma 2 Norte 0 -- -- 100
2019-09-19 05:00:00 14 0 Calma 0 Calma 0 -- -- 100
2019-09-19 04:00:00 14.5 0 Calma 2 Norte 0 -- -- 100
2019-09-19 03:00:00 14.6 0 Calma 3 Norte 0 -- -- 100
2019-09-19 02:00:00 14.9 0 Calma 2 Norte 0 -- -- 99
2019-09-19 01:00:00 15 0 Calma 2 Norte 0 -- -- 98
2019-09-19 00:00:00 15.5 0 Calma 3 Norte 0 -- -- 97